sensor_id;sensor_type;location;lat;lon;timestamp;P1;durP1;ratioP1;P2;durP2;ratioP2
15354;SDS011;7777;52.254;9.618;2022-11-04T00:01:57;6.23;;;3.73;;
15354;SDS011;7777;52.254;9.618;2022-11-04T00:04:25;6.07;;;3.50;;
15354;SDS011;7777;52.254;9.618;2022-11-04T00:06:52;5.13;;;3.80;;
15354;SDS011;7777;52.254;9.618;2022-11-04T00:09:20;5.33;;;3.50;;
15354;SDS011;7777;52.254;9.618;2022-11-04T00:11:52;6.90;;;4.10;;
15354;SDS011;7777;52.254;9.618;2022-11-04T00:14:36;6.60;;;3.23;;
15354;SDS011;7777;52.254;9.618;2022-11-04T00:17:03;6.80;;;3.57;;
15354;SDS011;7777;52.254;9.618;2022-11-04T00:19:46;7.40;;;3.97;;
15354;SDS011;7777;52.254;9.618;2022-11-04T00:22:36;5.37;;;3.60;;
15354;SDS011;7777;52.254;9.618;2022-11-04T00:25:24;5.50;;;3.77;;
15354;SDS011;7777;52.254;9.618;2022-11-04T00:28:10;4.70;;;3.37;;
15354;SDS011;7777;52.254;9.618;2022-11-04T00:30:56;5.50;;;3.97;;
15354;SDS011;7777;52.254;9.618;2022-11-04T00:33:44;4.43;;;3.40;;
15354;SDS011;7777;52.254;9.618;2022-11-04T00:36:14;4.53;;;3.07;;
15354;SDS011;7777;52.254;9.618;2022-11-04T00:38:40;5.73;;;3.70;;
15354;SDS011;7777;52.254;9.618;2022-11-04T00:41:06;4.20;;;3.13;;
15354;SDS011;7777;52.254;9.618;2022-11-04T00:43:50;4.97;;;3.40;;
15354;SDS011;7777;52.254;9.618;2022-11-04T00:46:21;5.40;;;3.00;;
15354;SDS011;7777;52.254;9.618;2022-11-04T00:48:46;6.37;;;3.43;;
15354;SDS011;7777;52.254;9.618;2022-11-04T00:51:12;4.90;;;3.10;;
15354;SDS011;7777;52.254;9.618;2022-11-04T00:53:38;6.67;;;3.20;;
15354;SDS011;7777;52.254;9.618;2022-11-04T00:56:04;5.63;;;3.97;;
15354;SDS011;7777;52.254;9.618;2022-11-04T00:58:30;6.90;;;3.73;;
15354;SDS011;7777;52.254;9.618;2022-11-04T01:00:56;8.83;;;3.57;;
15354;SDS011;7777;52.254;9.618;2022-11-04T01:03:22;9.33;;;4.13;;
15354;SDS011;7777;52.254;9.618;2022-11-04T01:05:47;4.63;;;3.70;;
15354;SDS011;7777;52.254;9.618;2022-11-04T01:08:13;8.87;;;3.47;;
15354;SDS011;7777;52.254;9.618;2022-11-04T01:10:39;6.70;;;3.80;;
15354;SDS011;7777;52.254;9.618;2022-11-04T01:13:11;6.87;;;3.60;;
15354;SDS011;7777;52.254;9.618;2022-11-04T01:15:38;6.87;;;2.80;;
15354;SDS011;7777;52.254;9.618;2022-11-04T01:18:04;5.17;;;3.40;;
15354;SDS011;7777;52.254;9.618;2022-11-04T01:20:31;5.83;;;3.23;;
15354;SDS011;7777;52.254;9.618;2022-11-04T01:22:58;5.90;;;2.43;;
15354;SDS011;7777;52.254;9.618;2022-11-04T01:25:24;6.17;;;3.37;;
15354;SDS011;7777;52.254;9.618;2022-11-04T01:27:50;4.87;;;3.17;;
15354;SDS011;7777;52.254;9.618;2022-11-04T01:30:15;5.90;;;3.03;;
15354;SDS011;7777;52.254;9.618;2022-11-04T01:32:41;7.93;;;3.47;;
15354;SDS011;7777;52.254;9.618;2022-11-04T01:35:07;5.63;;;3.20;;
15354;SDS011;7777;52.254;9.618;2022-11-04T01:37:33;6.23;;;3.50;;
15354;SDS011;7777;52.254;9.618;2022-11-04T01:39:59;6.67;;;3.53;;
15354;SDS011;7777;52.254;9.618;2022-11-04T01:42:25;9.53;;;3.30;;
15354;SDS011;7777;52.254;9.618;2022-11-04T01:44:55;5.30;;;3.23;;
15354;SDS011;7777;52.254;9.618;2022-11-04T01:47:36;4.00;;;2.87;;
15354;SDS011;7777;52.254;9.618;2022-11-04T01:50:10;4.40;;;3.13;;
15354;SDS011;7777;52.254;9.618;2022-11-04T01:55:18;4.00;;;3.20;;
15354;SDS011;7777;52.254;9.618;2022-11-04T01:57:50;3.60;;;3.00;;
15354;SDS011;7777;52.254;9.618;2022-11-04T02:00:21;4.47;;;3.43;;
15354;SDS011;7777;52.254;9.618;2022-11-04T02:05:24;5.17;;;3.20;;
15354;SDS011;7777;52.254;9.618;2022-11-04T02:07:53;4.60;;;2.83;;
15354;SDS011;7777;52.254;9.618;2022-11-04T02:10:24;3.90;;;2.70;;
15354;SDS011;7777;52.254;9.618;2022-11-04T02:12:51;3.80;;;2.63;;
15354;SDS011;7777;52.254;9.618;2022-11-04T02:15:26;4.27;;;2.70;;
15354;SDS011;7777;52.254;9.618;2022-11-04T02:18:12;4.37;;;3.20;;
15354;SDS011;7777;52.254;9.618;2022-11-04T02:20:50;3.67;;;2.47;;
15354;SDS011;7777;52.254;9.618;2022-11-04T02:40:40;4.13;;;2.13;;
15354;SDS011;7777;52.254;9.618;2022-11-04T02:46:34;2.90;;;2.10;;
15354;SDS011;7777;52.254;9.618;2022-11-04T02:49:12;4.83;;;2.20;;
15354;SDS011;7777;52.254;9.618;2022-11-04T02:51:48;3.00;;;2.20;;
15354;SDS011;7777;52.254;9.618;2022-11-04T02:54:41;4.27;;;1.87;;
15354;SDS011;7777;52.254;9.618;2022-11-04T02:57:14;4.03;;;1.90;;
15354;SDS011;7777;52.254;9.618;2022-11-04T02:59:51;1.87;;;1.60;;
15354;SDS011;7777;52.254;9.618;2022-11-04T03:02:21;1.83;;;1.47;;
15354;SDS011;7777;52.254;9.618;2022-11-04T03:04:54;1.47;;;1.10;;
15354;SDS011;7777;52.254;9.618;2022-11-04T03:07:24;1.60;;;1.07;;
15354;SDS011;7777;52.254;9.618;2022-11-04T03:09:57;1.80;;;0.80;;
15354;SDS011;7777;52.254;9.618;2022-11-04T03:12:28;1.80;;;1.03;;
15354;SDS011;7777;52.254;9.618;2022-11-04T03:15:05;1.83;;;1.00;;
15354;SDS011;7777;52.254;9.618;2022-11-04T03:17:57;4.63;;;0.83;;
15354;SDS011;7777;52.254;9.618;2022-11-04T03:21:03;1.73;;;1.10;;
15354;SDS011;7777;52.254;9.618;2022-11-04T03:23:33;1.50;;;1.00;;
15354;SDS011;7777;52.254;9.618;2022-11-04T03:26:03;1.17;;;1.00;;
15354;SDS011;7777;52.254;9.618;2022-11-04T03:28:45;1.53;;;1.00;;
15354;SDS011;7777;52.254;9.618;2022-11-04T03:31:28;2.50;;;1.10;;
15354;SDS011;7777;52.254;9.618;2022-11-04T03:34:13;1.90;;;1.10;;
15354;SDS011;7777;52.254;9.618;2022-11-04T03:36:39;3.77;;;1.30;;
15354;SDS011;7777;52.254;9.618;2022-11-04T03:39:05;1.47;;;1.23;;
15354;SDS011;7777;52.254;9.618;2022-11-04T03:41:36;2.27;;;1.60;;
15354;SDS011;7777;52.254;9.618;2022-11-04T03:44:17;2.23;;;1.60;;
15354;SDS011;7777;52.254;9.618;2022-11-04T03:46:44;2.70;;;1.70;;
15354;SDS011;7777;52.254;9.618;2022-11-04T03:49:10;3.03;;;2.00;;
15354;SDS011;7777;52.254;9.618;2022-11-04T03:51:36;2.50;;;2.07;;
15354;SDS011;7777;52.254;9.618;2022-11-04T03:54:02;5.37;;;2.07;;
15354;SDS011;7777;52.254;9.618;2022-11-04T03:56:36;2.80;;;2.17;;
15354;SDS011;7777;52.254;9.618;2022-11-04T04:01:52;4.27;;;2.80;;
15354;SDS011;7777;52.254;9.618;2022-11-04T04:04:35;3.20;;;2.70;;
15354;SDS011;7777;52.254;9.618;2022-11-04T04:07:17;5.00;;;3.30;;
15354;SDS011;7777;52.254;9.618;2022-11-04T04:09:52;4.33;;;2.77;;
15354;SDS011;7777;52.254;9.618;2022-11-04T04:12:37;4.27;;;2.93;;
15354;SDS011;7777;52.254;9.618;2022-11-04T04:15:18;3.53;;;2.50;;
15354;SDS011;7777;52.254;9.618;2022-11-04T04:17:51;3.90;;;2.80;;
15354;SDS011;7777;52.254;9.618;2022-11-04T04:20:26;4.80;;;2.73;;
15354;SDS011;7777;52.254;9.618;2022-11-04T04:23:10;4.53;;;2.80;;
15354;SDS011;7777;52.254;9.618;2022-11-04T04:26:01;2.80;;;2.50;;
15354;SDS011;7777;52.254;9.618;2022-11-04T04:28:49;2.97;;;2.37;;
15354;SDS011;7777;52.254;9.618;2022-11-04T04:31:17;3.10;;;2.77;;
15354;SDS011;7777;52.254;9.618;2022-11-04T04:34:03;3.77;;;2.90;;
15354;SDS011;7777;52.254;9.618;2022-11-04T04:36:30;3.93;;;2.90;;
15354;SDS011;7777;52.254;9.618;2022-11-04T04:39:13;3.37;;;2.60;;
15354;SDS011;7777;52.254;9.618;2022-11-04T04:42:01;3.03;;;2.70;;
15354;SDS011;7777;52.254;9.618;2022-11-04T04:44:46;3.30;;;2.63;;
15354;SDS011;7777;52.254;9.618;2022-11-04T04:47:43;2.90;;;2.60;;
15354;SDS011;7777;52.254;9.618;2022-11-04T04:50:14;5.50;;;2.60;;
15354;SDS011;7777;52.254;9.618;2022-11-04T04:52:44;3.43;;;2.47;;
15354;SDS011;7777;52.254;9.618;2022-11-04T04:55:12;2.90;;;2.57;;
15354;SDS011;7777;52.254;9.618;2022-11-04T04:57:39;5.37;;;2.73;;
15354;SDS011;7777;52.254;9.618;2022-11-04T05:00:06;4.10;;;2.90;;
15354;SDS011;7777;52.254;9.618;2022-11-04T05:02:37;7.23;;;2.90;;
15354;SDS011;7777;52.254;9.618;2022-11-04T05:05:03;4.60;;;2.80;;
15354;SDS011;7777;52.254;9.618;2022-11-04T05:07:29;3.40;;;3.10;;
15354;SDS011;7777;52.254;9.618;2022-11-04T05:09:55;5.57;;;2.93;;
15354;SDS011;7777;52.254;9.618;2022-11-04T05:12:20;3.87;;;2.73;;
15354;SDS011;7777;52.254;9.618;2022-11-04T05:14:46;4.30;;;3.13;;
15354;SDS011;7777;52.254;9.618;2022-11-04T05:17:12;6.47;;;3.10;;
15354;SDS011;7777;52.254;9.618;2022-11-04T05:19:39;4.00;;;3.37;;
15354;SDS011;7777;52.254;9.618;2022-11-04T05:22:05;3.30;;;2.77;;
15354;SDS011;7777;52.254;9.618;2022-11-04T05:24:31;5.00;;;4.50;;
15354;SDS011;7777;52.254;9.618;2022-11-04T05:26:56;5.50;;;3.90;;
15354;SDS011;7777;52.254;9.618;2022-11-04T05:29:22;5.17;;;4.67;;
15354;SDS011;7777;52.254;9.618;2022-11-04T05:31:48;4.17;;;3.47;;
15354;SDS011;7777;52.254;9.618;2022-11-04T05:34:14;6.60;;;4.13;;
15354;SDS011;7777;52.254;9.618;2022-11-04T05:36:40;4.97;;;3.83;;
15354;SDS011;7777;52.254;9.618;2022-11-04T05:39:06;4.37;;;3.30;;
15354;SDS011;7777;52.254;9.618;2022-11-04T05:41:32;4.03;;;3.50;;
15354;SDS011;7777;52.254;9.618;2022-11-04T05:43:59;5.40;;;4.17;;
15354;SDS011;7777;52.254;9.618;2022-11-04T05:46:27;6.13;;;4.00;;
15354;SDS011;7777;52.254;9.618;2022-11-04T05:48:54;4.70;;;3.77;;
15354;SDS011;7777;52.254;9.618;2022-11-04T05:51:22;4.23;;;3.20;;
15354;SDS011;7777;52.254;9.618;2022-11-04T05:53:50;3.90;;;3.50;;
15354;SDS011;7777;52.254;9.618;2022-11-04T05:56:16;3.47;;;3.17;;
15354;SDS011;7777;52.254;9.618;2022-11-04T05:58:42;6.07;;;4.00;;
15354;SDS011;7777;52.254;9.618;2022-11-04T06:04:03;4.50;;;3.57;;
15354;SDS011;7777;52.254;9.618;2022-11-04T06:06:32;6.07;;;3.57;;
15354;SDS011;7777;52.254;9.618;2022-11-04T06:09:01;5.67;;;4.33;;
15354;SDS011;7777;52.254;9.618;2022-11-04T06:11:28;11.83;;;4.63;;
15354;SDS011;7777;52.254;9.618;2022-11-04T06:13:55;6.60;;;3.97;;
15354;SDS011;7777;52.254;9.618;2022-11-04T06:16:22;4.60;;;3.60;;
15354;SDS011;7777;52.254;9.618;2022-11-04T06:18:48;3.80;;;3.03;;
15354;SDS011;7777;52.254;9.618;2022-11-04T06:23:40;5.60;;;3.30;;
15354;SDS011;7777;52.254;9.618;2022-11-04T06:26:07;4.33;;;3.87;;
15354;SDS011;7777;52.254;9.618;2022-11-04T06:28:34;5.23;;;3.70;;
15354;SDS011;7777;52.254;9.618;2022-11-04T06:31:00;5.30;;;3.50;;
15354;SDS011;7777;52.254;9.618;2022-11-04T06:33:28;4.87;;;3.60;;
15354;SDS011;7777;52.254;9.618;2022-11-04T06:35:58;4.73;;;3.87;;
15354;SDS011;7777;52.254;9.618;2022-11-04T06:38:28;7.63;;;3.30;;
15354;SDS011;7777;52.254;9.618;2022-11-04T06:40:55;5.00;;;4.13;;
15354;SDS011;7777;52.254;9.618;2022-11-04T06:43:22;4.57;;;3.40;;
15354;SDS011;7777;52.254;9.618;2022-11-04T06:45:54;6.00;;;4.00;;
15354;SDS011;7777;52.254;9.618;2022-11-04T06:48:21;8.80;;;4.10;;
15354;SDS011;7777;52.254;9.618;2022-11-04T06:50:47;4.53;;;3.80;;
15354;SDS011;7777;52.254;9.618;2022-11-04T06:53:13;5.70;;;3.83;;
15354;SDS011;7777;52.254;9.618;2022-11-04T06:55:39;5.07;;;3.93;;
15354;SDS011;7777;52.254;9.618;2022-11-04T06:58:04;5.97;;;4.07;;
15354;SDS011;7777;52.254;9.618;2022-11-04T07:00:30;5.30;;;3.70;;
15354;SDS011;7777;52.254;9.618;2022-11-04T07:02:56;18.00;;;5.10;;
15354;SDS011;7777;52.254;9.618;2022-11-04T07:05:22;32.80;;;7.77;;
15354;SDS011;7777;52.254;9.618;2022-11-04T07:07:47;8.43;;;4.60;;
15354;SDS011;7777;52.254;9.618;2022-11-04T07:10:14;12.30;;;4.67;;
15354;SDS011;7777;52.254;9.618;2022-11-04T07:12:41;18.53;;;6.03;;
15354;SDS011;7777;52.254;9.618;2022-11-04T07:15:08;25.47;;;6.80;;
15354;SDS011;7777;52.254;9.618;2022-11-04T07:17:34;11.20;;;5.27;;
15354;SDS011;7777;52.254;9.618;2022-11-04T07:20:01;21.07;;;8.63;;
15354;SDS011;7777;52.254;9.618;2022-11-04T07:22:27;14.93;;;4.87;;
15354;SDS011;7777;52.254;9.618;2022-11-04T07:24:53;14.87;;;5.80;;
15354;SDS011;7777;52.254;9.618;2022-11-04T07:27:18;14.07;;;5.47;;
15354;SDS011;7777;52.254;9.618;2022-11-04T07:29:44;12.93;;;7.43;;
15354;SDS011;7777;52.254;9.618;2022-11-04T07:32:10;11.93;;;4.80;;
15354;SDS011;7777;52.254;9.618;2022-11-04T07:34:35;11.77;;;4.80;;
15354;SDS011;7777;52.254;9.618;2022-11-04T07:37:02;8.83;;;4.40;;
15354;SDS011;7777;52.254;9.618;2022-11-04T07:39:27;9.77;;;4.80;;
15354;SDS011;7777;52.254;9.618;2022-11-04T07:41:53;12.40;;;4.43;;
15354;SDS011;7777;52.254;9.618;2022-11-04T07:44:19;7.27;;;3.33;;
15354;SDS011;7777;52.254;9.618;2022-11-04T07:46:46;8.97;;;4.13;;
15354;SDS011;7777;52.254;9.618;2022-11-04T07:49:12;6.20;;;3.70;;
15354;SDS011;7777;52.254;9.618;2022-11-04T07:51:38;4.83;;;3.57;;
15354;SDS011;7777;52.254;9.618;2022-11-04T07:54:04;12.97;;;4.23;;
15354;SDS011;7777;52.254;9.618;2022-11-04T07:56:30;7.00;;;3.60;;
15354;SDS011;7777;52.254;9.618;2022-11-04T07:58:57;4.13;;;3.07;;
15354;SDS011;7777;52.254;9.618;2022-11-04T08:01:23;7.83;;;3.77;;
15354;SDS011;7777;52.254;9.618;2022-11-04T08:03:49;6.97;;;3.40;;
15354;SDS011;7777;52.254;9.618;2022-11-04T08:06:16;8.57;;;3.50;;
15354;SDS011;7777;52.254;9.618;2022-11-04T08:08:44;5.87;;;3.00;;
15354;SDS011;7777;52.254;9.618;2022-11-04T08:11:13;10.07;;;3.33;;
15354;SDS011;7777;52.254;9.618;2022-11-04T08:13:42;6.47;;;3.37;;
15354;SDS011;7777;52.254;9.618;2022-11-04T08:16:10;7.87;;;3.07;;
15354;SDS011;7777;52.254;9.618;2022-11-04T08:18:42;5.80;;;3.33;;
15354;SDS011;7777;52.254;9.618;2022-11-04T08:21:09;6.13;;;3.40;;
15354;SDS011;7777;52.254;9.618;2022-11-04T08:23:35;7.47;;;3.07;;
15354;SDS011;7777;52.254;9.618;2022-11-04T08:26:01;8.63;;;3.30;;
15354;SDS011;7777;52.254;9.618;2022-11-04T08:28:32;9.10;;;3.50;;
15354;SDS011;7777;52.254;9.618;2022-11-04T08:30:59;7.23;;;3.20;;
15354;SDS011;7777;52.254;9.618;2022-11-04T08:33:29;8.63;;;3.60;;
15354;SDS011;7777;52.254;9.618;2022-11-04T08:36:02;7.67;;;4.30;;
15354;SDS011;7777;52.254;9.618;2022-11-04T08:38:33;6.00;;;2.73;;
15354;SDS011;7777;52.254;9.618;2022-11-04T08:40:59;5.70;;;3.73;;
15354;SDS011;7777;52.254;9.618;2022-11-04T08:43:28;14.90;;;3.47;;
15354;SDS011;7777;52.254;9.618;2022-11-04T08:45:54;9.23;;;3.17;;
15354;SDS011;7777;52.254;9.618;2022-11-04T08:48:20;8.73;;;3.47;;
15354;SDS011;7777;52.254;9.618;2022-11-04T08:50:51;15.27;;;4.10;;
15354;SDS011;7777;52.254;9.618;2022-11-04T08:53:19;5.80;;;3.47;;
15354;SDS011;7777;52.254;9.618;2022-11-04T08:55:45;6.57;;;3.40;;
15354;SDS011;7777;52.254;9.618;2022-11-04T08:58:11;8.50;;;4.17;;
15354;SDS011;7777;52.254;9.618;2022-11-04T09:00:37;11.63;;;3.57;;
15354;SDS011;7777;52.254;9.618;2022-11-04T09:03:03;8.10;;;3.50;;
15354;SDS011;7777;52.254;9.618;2022-11-04T09:05:29;5.83;;;3.43;;
15354;SDS011;7777;52.254;9.618;2022-11-04T09:07:56;5.40;;;3.30;;
15354;SDS011;7777;52.254;9.618;2022-11-04T09:10:22;5.87;;;3.13;;
15354;SDS011;7777;52.254;9.618;2022-11-04T09:12:48;6.10;;;3.60;;
15354;SDS011;7777;52.254;9.618;2022-11-04T09:15:13;10.10;;;3.40;;
15354;SDS011;7777;52.254;9.618;2022-11-04T09:17:39;7.37;;;3.07;;
15354;SDS011;7777;52.254;9.618;2022-11-04T09:20:05;6.50;;;3.00;;
15354;SDS011;7777;52.254;9.618;2022-11-04T09:22:32;7.27;;;3.40;;
15354;SDS011;7777;52.254;9.618;2022-11-04T09:24:57;5.23;;;3.00;;
15354;SDS011;7777;52.254;9.618;2022-11-04T09:27:23;6.50;;;2.80;;
15354;SDS011;7777;52.254;9.618;2022-11-04T09:29:49;8.53;;;3.47;;
15354;SDS011;7777;52.254;9.618;2022-11-04T09:32:15;8.47;;;3.67;;
15354;SDS011;7777;52.254;9.618;2022-11-04T09:34:40;4.77;;;3.20;;
15354;SDS011;7777;52.254;9.618;2022-11-04T09:37:06;9.17;;;3.97;;
15354;SDS011;7777;52.254;9.618;2022-11-04T09:39:32;6.37;;;3.63;;
15354;SDS011;7777;52.254;9.618;2022-11-04T09:44:50;6.20;;;3.30;;
15354;SDS011;7777;52.254;9.618;2022-11-04T09:47:22;5.23;;;3.30;;
15354;SDS011;7777;52.254;9.618;2022-11-04T09:49:51;5.87;;;3.47;;
15354;SDS011;7777;52.254;9.618;2022-11-04T09:52:25;7.30;;;3.73;;
15354;SDS011;7777;52.254;9.618;2022-11-04T09:55:03;8.43;;;3.57;;
15354;SDS011;7777;52.254;9.618;2022-11-04T09:57:38;7.77;;;3.47;;
15354;SDS011;7777;52.254;9.618;2022-11-04T10:00:05;9.10;;;3.50;;
15354;SDS011;7777;52.254;9.618;2022-11-04T10:26:50;7.53;;;2.93;;
15354;SDS011;7777;52.254;9.618;2022-11-04T10:29:25;7.57;;;2.77;;
15354;SDS011;7777;52.254;9.618;2022-11-04T10:32:03;9.53;;;3.73;;
15354;SDS011;7777;52.254;9.618;2022-11-04T10:34:41;7.03;;;3.13;;
15354;SDS011;7777;52.254;9.618;2022-11-04T10:37:16;5.23;;;2.93;;
15354;SDS011;7777;52.254;9.618;2022-11-04T10:39:43;6.77;;;2.60;;
15354;SDS011;7777;52.254;9.618;2022-11-04T10:42:11;5.80;;;3.20;;
15354;SDS011;7777;52.254;9.618;2022-11-04T10:44:42;4.53;;;3.20;;
15354;SDS011;7777;52.254;9.618;2022-11-04T10:50:42;6.83;;;3.00;;
15354;SDS011;7777;52.254;9.618;2022-11-04T10:53:24;7.23;;;2.90;;
15354;SDS011;7777;52.254;9.618;2022-11-04T10:58:31;7.20;;;2.80;;
15354;SDS011;7777;52.254;9.618;2022-11-04T11:01:21;8.47;;;2.73;;
15354;SDS011;7777;52.254;9.618;2022-11-04T11:03:56;7.33;;;2.80;;
15354;SDS011;7777;52.254;9.618;2022-11-04T11:11:47;9.40;;;3.40;;
15354;SDS011;7777;52.254;9.618;2022-11-04T11:14:18;8.73;;;2.90;;
15354;SDS011;7777;52.254;9.618;2022-11-04T11:19:58;4.40;;;2.67;;
15354;SDS011;7777;52.254;9.618;2022-11-04T11:28:02;7.87;;;2.63;;
15354;SDS011;7777;52.254;9.618;2022-11-04T11:30:51;6.73;;;2.30;;
15354;SDS011;7777;52.254;9.618;2022-11-04T11:33:28;8.67;;;2.53;;
15354;SDS011;7777;52.254;9.618;2022-11-04T11:36:21;5.97;;;2.63;;
15354;SDS011;7777;52.254;9.618;2022-11-04T11:38:54;7.47;;;2.67;;
15354;SDS011;7777;52.254;9.618;2022-11-04T11:49:44;4.40;;;2.47;;
15354;SDS011;7777;52.254;9.618;2022-11-04T12:00:29;3.70;;;2.07;;
15354;SDS011;7777;52.254;9.618;2022-11-04T12:15:53;5.00;;;2.37;;
15354;SDS011;7777;52.254;9.618;2022-11-04T12:21:17;3.57;;;1.80;;
15354;SDS011;7777;52.254;9.618;2022-11-04T12:24:20;2.70;;;1.70;;
15354;SDS011;7777;52.254;9.618;2022-11-04T12:27:12;4.77;;;1.83;;
15354;SDS011;7777;52.254;9.618;2022-11-04T12:30:15;6.63;;;2.00;;
15354;SDS011;7777;52.254;9.618;2022-11-04T12:38:27;3.67;;;1.80;;
15354;SDS011;7777;52.254;9.618;2022-11-04T12:44:34;5.97;;;1.67;;
15354;SDS011;7777;52.254;9.618;2022-11-04T12:47:26;4.97;;;2.23;;
15354;SDS011;7777;52.254;9.618;2022-11-04T12:53:35;4.33;;;1.97;;
15354;SDS011;7777;52.254;9.618;2022-11-04T12:56:13;5.30;;;2.00;;
15354;SDS011;7777;52.254;9.618;2022-11-04T13:01:36;6.03;;;1.70;;
15354;SDS011;7777;52.254;9.618;2022-11-04T13:04:11;6.43;;;1.93;;
15354;SDS011;7777;52.254;9.618;2022-11-04T13:06:49;6.03;;;1.90;;
15354;SDS011;7777;52.254;9.618;2022-11-04T13:09:39;6.10;;;2.17;;
15354;SDS011;7777;52.254;9.618;2022-11-04T13:12:21;5.27;;;1.77;;
15354;SDS011;7777;52.254;9.618;2022-11-04T13:17:28;4.47;;;1.97;;
15354;SDS011;7777;52.254;9.618;2022-11-04T13:22:38;10.47;;;2.27;;
15354;SDS011;7777;52.254;9.618;2022-11-04T13:25:15;5.80;;;2.10;;
15354;SDS011;7777;52.254;9.618;2022-11-04T13:28:04;4.77;;;1.90;;
15354;SDS011;7777;52.254;9.618;2022-11-04T13:39:21;6.47;;;1.93;;
15354;SDS011;7777;52.254;9.618;2022-11-04T13:45:03;6.50;;;1.93;;
15354;SDS011;7777;52.254;9.618;2022-11-04T13:47:37;11.67;;;1.73;;
15354;SDS011;7777;52.254;9.618;2022-11-04T13:52:57;4.67;;;1.80;;
15354;SDS011;7777;52.254;9.618;2022-11-04T13:55:23;7.77;;;2.43;;
15354;SDS011;7777;52.254;9.618;2022-11-04T13:58:02;4.70;;;2.10;;
15354;SDS011;7777;52.254;9.618;2022-11-04T14:00:31;4.97;;;1.80;;
15354;SDS011;7777;52.254;9.618;2022-11-04T14:02:58;5.33;;;1.80;;
15354;SDS011;7777;52.254;9.618;2022-11-04T14:08:28;5.77;;;2.20;;
15354;SDS011;7777;52.254;9.618;2022-11-04T14:18:49;4.00;;;1.90;;
15354;SDS011;7777;52.254;9.618;2022-11-04T14:21:19;2.67;;;1.67;;
15354;SDS011;7777;52.254;9.618;2022-11-04T14:23:58;6.20;;;1.97;;
15354;SDS011;7777;52.254;9.618;2022-11-04T14:29:22;3.50;;;1.80;;
15354;SDS011;7777;52.254;9.618;2022-11-04T14:31:51;6.53;;;2.53;;
15354;SDS011;7777;52.254;9.618;2022-11-04T14:34:25;7.07;;;2.77;;
15354;SDS011;7777;52.254;9.618;2022-11-04T14:39:58;6.37;;;2.10;;
15354;SDS011;7777;52.254;9.618;2022-11-04T14:45:27;6.80;;;2.63;;
15354;SDS011;7777;52.254;9.618;2022-11-04T14:48:15;5.60;;;2.30;;
15354;SDS011;7777;52.254;9.618;2022-11-04T14:50:45;6.20;;;2.23;;
15354;SDS011;7777;52.254;9.618;2022-11-04T14:53:20;3.90;;;1.80;;
15354;SDS011;7777;52.254;9.618;2022-11-04T14:56:06;4.37;;;2.23;;
15354;SDS011;7777;52.254;9.618;2022-11-04T14:59:01;4.70;;;2.23;;
15354;SDS011;7777;52.254;9.618;2022-11-04T15:01:35;5.63;;;2.13;;
15354;SDS011;7777;52.254;9.618;2022-11-04T15:04:17;6.20;;;2.03;;
15354;SDS011;7777;52.254;9.618;2022-11-04T15:06:57;3.53;;;1.73;;
15354;SDS011;7777;52.254;9.618;2022-11-04T15:12:02;5.33;;;2.60;;
15354;SDS011;7777;52.254;9.618;2022-11-04T15:14:52;5.57;;;2.37;;
15354;SDS011;7777;52.254;9.618;2022-11-04T15:17:19;5.40;;;2.70;;
15354;SDS011;7777;52.254;9.618;2022-11-04T15:19:50;5.63;;;3.13;;
15354;SDS011;7777;52.254;9.618;2022-11-04T15:22:18;3.37;;;2.53;;
15354;SDS011;7777;52.254;9.618;2022-11-04T15:24:44;6.07;;;2.70;;
15354;SDS011;7777;52.254;9.618;2022-11-04T15:27:12;5.33;;;2.43;;
15354;SDS011;7777;52.254;9.618;2022-11-04T15:29:54;3.20;;;2.10;;
15354;SDS011;7777;52.254;9.618;2022-11-04T15:32:23;3.63;;;2.13;;
15354;SDS011;7777;52.254;9.618;2022-11-04T15:34:50;3.20;;;2.30;;
15354;SDS011;7777;52.254;9.618;2022-11-04T15:37:17;4.17;;;2.20;;
15354;SDS011;7777;52.254;9.618;2022-11-04T15:39:46;5.47;;;2.10;;
15354;SDS011;7777;52.254;9.618;2022-11-04T15:42:20;4.13;;;2.10;;
15354;SDS011;7777;52.254;9.618;2022-11-04T15:51:09;4.37;;;2.50;;
15354;SDS011;7777;52.254;9.618;2022-11-04T15:53:55;4.77;;;2.33;;
15354;SDS011;7777;52.254;9.618;2022-11-04T15:56:31;3.20;;;2.37;;
15354;SDS011;7777;52.254;9.618;2022-11-04T15:59:14;4.87;;;2.53;;
15354;SDS011;7777;52.254;9.618;2022-11-04T16:02:02;5.23;;;2.70;;
15354;SDS011;7777;52.254;9.618;2022-11-04T16:04:29;7.60;;;2.80;;
15354;SDS011;7777;52.254;9.618;2022-11-04T16:09:47;5.50;;;2.30;;
15354;SDS011;7777;52.254;9.618;2022-11-04T16:14:52;3.53;;;2.50;;
15354;SDS011;7777;52.254;9.618;2022-11-04T16:17:20;6.83;;;3.00;;
15354;SDS011;7777;52.254;9.618;2022-11-04T16:19:48;4.77;;;3.00;;
15354;SDS011;7777;52.254;9.618;2022-11-04T16:22:19;8.27;;;3.00;;
15354;SDS011;7777;52.254;9.618;2022-11-04T16:24:58;7.77;;;2.67;;
15354;SDS011;7777;52.254;9.618;2022-11-04T16:27:29;5.67;;;2.10;;
15354;SDS011;7777;52.254;9.618;2022-11-04T16:30:11;9.77;;;2.73;;
15354;SDS011;7777;52.254;9.618;2022-11-04T16:32:44;4.07;;;3.17;;
15354;SDS011;7777;52.254;9.618;2022-11-04T16:37:45;6.53;;;3.30;;
15354;SDS011;7777;52.254;9.618;2022-11-04T16:40:13;5.03;;;3.33;;
15354;SDS011;7777;52.254;9.618;2022-11-04T16:42:40;6.90;;;3.60;;
15354;SDS011;7777;52.254;9.618;2022-11-04T16:45:09;7.53;;;4.33;;
15354;SDS011;7777;52.254;9.618;2022-11-04T16:48:02;6.20;;;3.83;;
15354;SDS011;7777;52.254;9.618;2022-11-04T16:50:29;9.03;;;4.27;;
15354;SDS011;7777;52.254;9.618;2022-11-04T16:52:58;9.00;;;4.83;;
15354;SDS011;7777;52.254;9.618;2022-11-04T16:55:25;10.67;;;5.80;;
15354;SDS011;7777;52.254;9.618;2022-11-04T16:58:02;10.03;;;4.87;;
15354;SDS011;7777;52.254;9.618;2022-11-04T17:00:29;6.43;;;4.97;;
15354;SDS011;7777;52.254;9.618;2022-11-04T17:02:59;7.30;;;4.97;;
15354;SDS011;7777;52.254;9.618;2022-11-04T17:05:26;11.40;;;5.80;;
15354;SDS011;7777;52.254;9.618;2022-11-04T17:07:52;10.93;;;6.60;;
15354;SDS011;7777;52.254;9.618;2022-11-04T17:10:19;10.60;;;6.50;;
15354;SDS011;7777;52.254;9.618;2022-11-04T17:12:49;9.80;;;6.27;;
15354;SDS011;7777;52.254;9.618;2022-11-04T17:15:15;8.67;;;5.60;;
15354;SDS011;7777;52.254;9.618;2022-11-04T17:17:41;6.43;;;5.17;;
15354;SDS011;7777;52.254;9.618;2022-11-04T17:20:09;5.83;;;4.73;;
15354;SDS011;7777;52.254;9.618;2022-11-04T17:22:38;8.97;;;5.00;;
15354;SDS011;7777;52.254;9.618;2022-11-04T17:25:08;7.73;;;5.67;;
15354;SDS011;7777;52.254;9.618;2022-11-04T17:27:47;8.80;;;5.43;;
15354;SDS011;7777;52.254;9.618;2022-11-04T17:30:14;7.33;;;6.17;;
15354;SDS011;7777;52.254;9.618;2022-11-04T17:32:41;11.27;;;6.97;;
15354;SDS011;7777;52.254;9.618;2022-11-04T17:35:08;11.83;;;8.03;;
15354;SDS011;7777;52.254;9.618;2022-11-04T17:37:34;16.37;;;8.47;;
15354;SDS011;7777;52.254;9.618;2022-11-04T17:40:00;13.93;;;9.10;;
15354;SDS011;7777;52.254;9.618;2022-11-04T17:42:26;11.93;;;8.80;;
15354;SDS011;7777;52.254;9.618;2022-11-04T17:45:10;10.57;;;7.57;;
15354;SDS011;7777;52.254;9.618;2022-11-04T17:47:36;8.43;;;6.47;;
15354;SDS011;7777;52.254;9.618;2022-11-04T17:50:03;10.83;;;6.77;;
15354;SDS011;7777;52.254;9.618;2022-11-04T17:52:32;9.63;;;6.57;;
15354;SDS011;7777;52.254;9.618;2022-11-04T17:55:03;8.87;;;6.03;;
15354;SDS011;7777;52.254;9.618;2022-11-04T17:57:29;7.70;;;5.17;;
15354;SDS011;7777;52.254;9.618;2022-11-04T17:59:58;7.63;;;5.57;;
15354;SDS011;7777;52.254;9.618;2022-11-04T18:02:24;10.87;;;5.87;;
15354;SDS011;7777;52.254;9.618;2022-11-04T18:04:50;7.97;;;5.60;;
15354;SDS011;7777;52.254;9.618;2022-11-04T18:07:16;5.63;;;4.30;;
15354;SDS011;7777;52.254;9.618;2022-11-04T18:09:43;6.53;;;4.53;;
15354;SDS011;7777;52.254;9.618;2022-11-04T18:12:09;6.93;;;4.70;;
15354;SDS011;7777;52.254;9.618;2022-11-04T18:14:53;7.97;;;5.20;;
15354;SDS011;7777;52.254;9.618;2022-11-04T18:17:19;6.67;;;5.33;;
15354;SDS011;7777;52.254;9.618;2022-11-04T18:19:49;6.67;;;4.70;;
15354;SDS011;7777;52.254;9.618;2022-11-04T18:22:16;5.53;;;4.30;;
15354;SDS011;7777;52.254;9.618;2022-11-04T18:24:43;7.40;;;5.13;;
15354;SDS011;7777;52.254;9.618;2022-11-04T18:27:09;7.23;;;4.37;;
15354;SDS011;7777;52.254;9.618;2022-11-04T18:29:35;6.03;;;4.30;;
15354;SDS011;7777;52.254;9.618;2022-11-04T18:32:01;8.67;;;4.40;;